createdAt,value
2017-11-30T00:00:12.651Z,986.1
2017-11-30T00:01:22.457Z,986.1
2017-11-30T00:02:32.018Z,986.18
2017-11-30T00:03:42.166Z,986.18
2017-11-30T00:04:51.987Z,986.19
2017-11-30T00:06:02.091Z,986.12
2017-11-30T00:07:12.176Z,986.12
2017-11-30T00:08:22.660Z,986.07
2017-11-30T00:09:32.796Z,986.05
2017-11-30T00:10:42.613Z,986.09
2017-11-30T00:11:52.183Z,986.08
2017-11-30T00:13:02.261Z,986.08
2017-11-30T00:14:12.354Z,986.02
2017-11-30T00:15:22.193Z,986.04
2017-11-30T00:16:32.266Z,986.03
2017-11-30T00:17:42.353Z,986.05
2017-11-30T00:18:52.174Z,986.09
2017-11-30T00:20:02.253Z,986.11
2017-11-30T00:21:12.125Z,986.1
2017-11-30T00:22:21.664Z,986.09
2017-11-30T00:23:31.767Z,986.07
2017-11-30T00:24:41.853Z,986.05
2017-11-30T00:25:51.423Z,986.08
2017-11-30T00:27:01.028Z,986.01
2017-11-30T00:28:10.877Z,985.97
2017-11-30T00:29:20.716Z,985.95
2017-11-30T00:30:30.561Z,985.92
2017-11-30T00:31:40.365Z,985.91
2017-11-30T00:32:50.433Z,985.9
2017-11-30T00:34:00.511Z,985.89
2017-11-30T00:35:10.364Z,985.85
2017-11-30T00:36:20.490Z,985.86
2017-11-30T00:37:30.559Z,985.82
2017-11-30T00:38:40.680Z,985.8
2017-11-30T00:39:50.490Z,985.79
2017-11-30T00:41:00.572Z,985.74
2017-11-30T00:42:10.638Z,985.78
2017-11-30T00:43:20.730Z,985.77
2017-11-30T00:44:30.822Z,985.78
2017-11-30T00:45:40.632Z,985.77
2017-11-30T00:46:50.693Z,985.77
2017-11-30T00:48:00.522Z,985.77
2017-11-30T00:49:10.321Z,985.78
2017-11-30T00:50:20.223Z,985.73
2017-11-30T00:51:30.022Z,985.66
2017-11-30T00:52:39.821Z,985.63
2017-11-30T00:53:49.356Z,985.66
2017-11-30T00:54:59.161Z,985.66
2017-11-30T00:56:09.286Z,985.65
2017-11-30T00:57:19.370Z,985.73
2017-11-30T00:58:29.178Z,985.7
2017-11-30T00:59:39.265Z,985.65
2017-11-30T01:00:49.353Z,985.6
2017-11-30T01:01:59.453Z,985.59
2017-11-30T01:03:09.266Z,985.58
2017-11-30T01:04:19.361Z,985.62
2017-11-30T01:05:29.435Z,985.66
2017-11-30T01:06:39.251Z,985.63
2017-11-30T01:07:49.123Z,985.67
2017-11-30T01:08:58.924Z,985.68
2017-11-30T01:10:09.004Z,985.68
2017-11-30T01:11:19.102Z,985.63
2017-11-30T01:12:28.644Z,985.66
2017-11-30T01:13:38.772Z,985.65
2017-11-30T01:14:48.874Z,985.69
2017-11-30T01:15:58.949Z,985.69
2017-11-30T01:17:08.487Z,985.64
2017-11-30T01:18:18.296Z,985.67
2017-11-30T01:19:28.366Z,985.68
2017-11-30T01:20:38.175Z,985.69
2017-11-30T01:21:48.241Z,985.63
2017-11-30T01:22:58.336Z,985.65
2017-11-30T01:24:08.168Z,985.65
2017-11-30T01:25:18.303Z,985.62
2017-11-30T01:26:28.904Z,985.63
2017-11-30T01:27:38.710Z,985.63
2017-11-30T01:28:48.511Z,985.59
2017-11-30T01:29:58.341Z,985.65
2017-11-30T01:31:08.148Z,985.59
2017-11-30T01:32:18.212Z,985.58
2017-11-30T01:33:28.034Z,985.56
2017-11-30T01:34:38.116Z,985.54
2017-11-30T01:35:47.663Z,985.57
2017-11-30T01:36:59.704Z,985.55
2017-11-30T01:38:09.532Z,985.54
2017-11-30T01:39:19.333Z,985.55
2017-11-30T01:40:29.426Z,985.51
2017-11-30T01:41:39.259Z,985.49
2017-11-30T01:42:49.340Z,985.46
2017-11-30T01:43:59.443Z,985.44
2017-11-30T01:45:08.975Z,985.42
2017-11-30T01:46:19.288Z,985.4
2017-11-30T01:47:29.388Z,985.41
2017-11-30T01:48:39.533Z,985.39
2017-11-30T01:49:49.609Z,985.37
2017-11-30T01:50:59.427Z,985.35
2017-11-30T01:52:09.848Z,985.34
2017-11-30T01:53:19.954Z,985.32
2017-11-30T01:54:30.031Z,985.34
2017-11-30T01:55:39.840Z,985.32
2017-11-30T01:56:49.917Z,985.31
2017-11-30T01:58:00.008Z,985.28
2017-11-30T01:59:10.200Z,985.25
2017-11-30T02:00:20.052Z,985.22
2017-11-30T02:01:29.853Z,985.19
2017-11-30T02:02:39.133Z,985.19
2017-11-30T02:03:48.942Z,985.18
2017-11-30T02:04:59.040Z,985.13
2017-11-30T02:06:08.860Z,985.16
2017-11-30T02:07:18.662Z,985.13
2017-11-30T02:08:28.459Z,985.17
2017-11-30T02:09:38.546Z,985.14
2017-11-30T02:10:48.621Z,985.11
2017-11-30T02:11:58.477Z,985.03
2017-11-30T02:13:08.293Z,985.06
2017-11-30T02:14:17.839Z,985.01
2017-11-30T02:15:27.942Z,984.96
2017-11-30T02:16:37.745Z,984.94
2017-11-30T02:17:47.812Z,984.93
2017-11-30T02:18:57.886Z,984.94
2017-11-30T02:20:07.687Z,984.88
2017-11-30T02:21:17.758Z,984.9
2017-11-30T02:22:27.564Z,984.88
2017-11-30T02:23:37.405Z,984.84
2017-11-30T02:24:47.219Z,984.8
2017-11-30T02:25:57.288Z,984.78
2017-11-30T02:27:07.089Z,984.78
2017-11-30T02:28:17.929Z,984.77
2017-11-30T02:29:27.469Z,984.73
2017-11-30T02:30:37.272Z,984.74
2017-11-30T02:31:47.362Z,984.72
2017-11-30T02:32:57.174Z,984.67
2017-11-30T02:34:07.257Z,984.69
2017-11-30T02:35:17.361Z,984.66
2017-11-30T02:36:27.468Z,984.65
2017-11-30T02:37:37.535Z,984.63
2017-11-30T02:38:47.355Z,984.67
2017-11-30T02:39:57.470Z,984.64
2017-11-30T02:41:07.584Z,984.72
2017-11-30T02:42:17.683Z,984.72
2017-11-30T02:43:27.498Z,984.75
2017-11-30T02:44:37.558Z,984.72
2017-11-30T02:45:47.375Z,984.66
2017-11-30T02:46:57.461Z,984.62
2017-11-30T02:48:07.033Z,984.61
2017-11-30T02:49:17.130Z,984.56
2017-11-30T02:50:26.953Z,984.63
2017-11-30T02:51:36.759Z,984.61
2017-11-30T02:52:46.586Z,984.65
2017-11-30T02:53:56.653Z,984.73
2017-11-30T02:55:06.728Z,984.75
2017-11-30T02:56:16.525Z,984.76
2017-11-30T02:57:26.346Z,984.71
2017-11-30T02:58:36.155Z,984.69
2017-11-30T02:59:46.221Z,984.65
2017-11-30T03:00:56.707Z,984.6
2017-11-30T03:02:06.792Z,984.55
2017-11-30T03:34:14.801Z,984.15
2017-11-30T03:35:24.609Z,984.14
2017-11-30T03:36:34.404Z,984.1
2017-11-30T03:37:44.467Z,984.07
2017-11-30T03:38:54.284Z,984.08
2017-11-30T03:40:04.176Z,984.13
2017-11-30T03:41:14.273Z,984.11
2017-11-30T03:42:24.349Z,984.11
2017-11-30T03:43:33.610Z,984.04
2017-11-30T03:44:43.690Z,983.99
2017-11-30T03:45:53.800Z,983.95
2017-11-30T03:47:03.876Z,983.96
2017-11-30T03:48:13.953Z,983.95
2017-11-30T03:49:24.059Z,984.05
2017-11-30T03:50:33.868Z,984.04
2017-11-30T03:51:43.945Z,984.02
2017-11-30T03:52:54.023Z,983.98
2017-11-30T03:54:03.823Z,984.01
2017-11-30T03:55:13.628Z,984.03
2017-11-30T03:56:23.676Z,984.01
2017-11-30T03:57:33.207Z,984.03
2017-11-30T03:58:43.279Z,984.02
2017-11-30T03:59:53.348Z,984.04
2017-11-30T04:01:03.153Z,983.95
2017-11-30T04:02:13.238Z,983.95
2017-11-30T04:03:23.052Z,983.95
2017-11-30T04:04:32.852Z,983.91
2017-11-30T04:05:42.669Z,983.95
2017-11-30T04:06:52.731Z,983.87
2017-11-30T04:08:02.812Z,983.87
2017-11-30T04:09:12.940Z,983.89
2017-11-30T04:10:22.745Z,983.87
2017-11-30T04:11:32.818Z,983.85
2017-11-30T04:12:43.833Z,983.81
2017-11-30T04:13:53.379Z,983.86
2017-11-30T04:15:03.565Z,983.81
2017-11-30T04:16:13.369Z,983.82
2017-11-30T04:17:23.193Z,983.79
2017-11-30T04:18:32.720Z,983.75
2017-11-30T04:19:42.807Z,983.72
2017-11-30T04:20:52.607Z,983.66
2017-11-30T04:22:02.419Z,983.66
2017-11-30T04:23:13.230Z,983.69
2017-11-30T04:24:23.301Z,983.67
2017-11-30T04:25:33.111Z,983.67
2017-11-30T04:26:42.916Z,983.68
2017-11-30T04:27:53.654Z,983.66
2017-11-30T04:29:03.467Z,983.63
2017-11-30T04:30:13.535Z,983.64
2017-11-30T04:31:23.612Z,983.63
2017-11-30T04:32:33.732Z,983.61
2017-11-30T04:33:43.292Z,983.69
2017-11-30T04:34:53.389Z,983.68
2017-11-30T04:36:03.217Z,983.65
2017-11-30T04:37:13.310Z,983.66
2017-11-30T04:38:22.902Z,983.67
2017-11-30T04:39:32.699Z,983.7
2017-11-30T04:40:42.514Z,983.7
2017-11-30T04:41:52.318Z,983.68
2017-11-30T04:43:02.396Z,983.65
2017-11-30T04:44:12.468Z,983.61
2017-11-30T04:45:22.284Z,983.6
2017-11-30T04:46:32.390Z,983.62
2017-11-30T04:47:42.193Z,983.56
2017-11-30T04:48:51.775Z,983.55
2017-11-30T04:50:01.591Z,983.55
2017-11-30T04:51:11.402Z,983.51
2017-11-30T04:52:21.480Z,983.53
2017-11-30T04:53:31.566Z,983.48
2017-11-30T04:54:41.110Z,983.47
2017-11-30T04:55:50.480Z,983.49
2017-11-30T04:57:00.551Z,983.41
2017-11-30T04:58:10.108Z,983.4
2017-11-30T04:59:21.498Z,983.37
2017-11-30T05:00:32.142Z,983.34
2017-11-30T05:01:42.213Z,983.34
2017-11-30T05:02:52.301Z,983.33
2017-11-30T05:04:02.116Z,983.3
2017-11-30T05:05:12.180Z,983.27
2017-11-30T05:06:23.188Z,983.21
2017-11-30T05:07:33.266Z,983.22
2017-11-30T05:08:43.063Z,983.23
2017-11-30T05:09:52.884Z,983.22
2017-11-30T05:11:02.953Z,983.16
2017-11-30T05:12:12.748Z,983.18
2017-11-30T05:13:22.578Z,983.14
2017-11-30T05:14:32.666Z,983.11
2017-11-30T05:15:42.498Z,983.04
2017-11-30T05:16:52.574Z,983.09
2017-11-30T05:18:02.732Z,983.1
2017-11-30T05:19:12.882Z,983.11
2017-11-30T05:20:22.674Z,983.14
2017-11-30T05:21:32.241Z,983.11
2017-11-30T05:22:42.336Z,983.08
2017-11-30T05:23:52.420Z,983.03
2017-11-30T05:25:02.013Z,983.02
2017-11-30T05:26:11.795Z,983.03
2017-11-30T05:27:21.367Z,983.06
2017-11-30T05:28:31.187Z,983.09
2017-11-30T05:29:41.265Z,983.12
2017-11-30T05:30:51.392Z,983.14
2017-11-30T05:32:01.207Z,983.23
2017-11-30T05:33:11.275Z,983.27
2017-11-30T05:34:21.378Z,983.25
2017-11-30T05:35:31.457Z,983.22
2017-11-30T05:36:41.534Z,983.13
2017-11-30T05:37:51.067Z,983.17
2017-11-30T05:39:00.618Z,983.19
2017-11-30T05:40:10.733Z,983.17
2017-11-30T05:41:20.827Z,983.22
2017-11-30T05:42:30.924Z,983.25
2017-11-30T05:43:40.748Z,983.26
2017-11-30T05:44:50.878Z,983.22
2017-11-30T05:46:00.960Z,983.2
2017-11-30T05:47:10.771Z,983.14
2017-11-30T05:48:20.895Z,983.12
2017-11-30T05:49:30.964Z,983.11
2017-11-30T05:50:40.522Z,983.13
2017-11-30T05:51:50.334Z,983.11
2017-11-30T05:53:00.419Z,983.11
2017-11-30T05:54:10.303Z,983.15
2017-11-30T05:55:20.093Z,983.19
2017-11-30T05:56:29.892Z,983.25
2017-11-30T05:57:39.707Z,983.24
2017-11-30T05:58:49.778Z,983.17
2017-11-30T05:59:59.587Z,983.14
2017-11-30T06:01:09.693Z,983.09
2017-11-30T06:02:19.494Z,983.07
2017-11-30T06:03:29.302Z,983.06
2017-11-30T06:04:39.123Z,983.12
2017-11-30T06:05:48.974Z,983.11
2017-11-30T06:06:58.514Z,983.09
2017-11-30T06:08:08.072Z,983.1
2017-11-30T06:09:17.897Z,983.12
2017-11-30T06:10:27.970Z,983.1
2017-11-30T06:11:37.864Z,983.16
2017-11-30T06:12:47.955Z,983.16
2017-11-30T06:13:58.046Z,983.19
2017-11-30T06:15:07.592Z,983.15
2017-11-30T06:16:17.423Z,983.14
2017-11-30T06:17:27.524Z,983.13
2017-11-30T06:18:37.319Z,983.17
2017-11-30T06:19:47.416Z,983.17
2017-11-30T06:20:57.232Z,983.23
2017-11-30T06:22:07.296Z,983.19
2017-11-30T06:23:17.443Z,983.18
2017-11-30T06:24:27.232Z,983.17
2017-11-30T06:25:38.947Z,983.12
2017-11-30T06:26:49.116Z,983.16
2017-11-30T06:27:59.186Z,983.18
2017-11-30T06:29:09.260Z,983.17
2017-11-30T06:30:18.805Z,983.24
2017-11-30T06:31:28.878Z,983.21
2017-11-30T06:32:38.962Z,983.2
2017-11-30T06:33:48.771Z,983.2
2017-11-30T06:34:58.590Z,983.08
2017-11-30T06:36:08.141Z,983.06
2017-11-30T06:37:17.701Z,983.04
2017-11-30T06:38:27.509Z,983.04
2017-11-30T06:39:37.595Z,983.02
2017-11-30T06:40:47.465Z,983.07
2017-11-30T06:41:57.765Z,983.11
2017-11-30T06:43:07.571Z,983.1
2017-11-30T06:44:17.664Z,983.1
2017-11-30T06:45:27.469Z,983.19
2017-11-30T06:46:36.500Z,983.12
2017-11-30T06:47:46.329Z,983.12
2017-11-30T06:48:55.884Z,983.13
2017-11-30T06:50:06.197Z,983.1
2017-11-30T06:51:16.008Z,983.07
2017-11-30T06:52:26.130Z,983.1
2017-11-30T06:53:36.212Z,983.11
2017-11-30T06:54:46.018Z,983.19
2017-11-30T06:55:55.831Z,983.14
2017-11-30T06:57:05.936Z,983.1
2017-11-30T06:58:15.788Z,983.07
2017-11-30T06:59:25.867Z,983
2017-11-30T07:00:35.943Z,983.05
2017-11-30T07:01:45.764Z,983.01
2017-11-30T07:02:55.857Z,983
2017-11-30T07:04:06.057Z,982.98
2017-11-30T07:05:15.614Z,983.02
2017-11-30T07:06:25.453Z,982.98
2017-11-30T07:07:35.506Z,983
2017-11-30T07:08:45.327Z,982.99
2017-11-30T07:09:54.920Z,983.05
2017-11-30T07:11:04.728Z,983.06
2017-11-30T07:12:14.815Z,983.06
2017-11-30T07:13:24.626Z,983.07
2017-11-30T07:14:34.745Z,983.04
2017-11-30T07:15:44.815Z,983.04
2017-11-30T07:16:54.627Z,983.07
2017-11-30T07:18:04.708Z,983.1
2017-11-30T07:19:14.521Z,983.13
2017-11-30T07:20:24.327Z,983.22
2017-11-30T07:21:34.150Z,983.14
2017-11-30T07:22:44.241Z,983.19
2017-11-30T07:23:54.326Z,983.18
2017-11-30T07:25:03.864Z,983.19
2017-11-30T07:26:13.981Z,983.17
2017-11-30T07:27:24.104Z,983.12
2017-11-30T07:28:34.187Z,983.1
2017-11-30T07:29:44.280Z,983.12
2017-11-30T07:30:54.380Z,983.07
2017-11-30T07:32:04.200Z,983.09
2017-11-30T07:33:14.279Z,983.08
2017-11-30T07:34:24.107Z,983.09
2017-11-30T07:35:33.912Z,983.04
2017-11-30T07:36:43.999Z,983.09
2017-11-30T07:37:54.063Z,983.11
2017-11-30T07:39:03.911Z,983.09
2017-11-30T07:40:13.480Z,983.08
2017-11-30T07:41:23.543Z,983.09
2017-11-30T07:42:33.095Z,983.06
2017-11-30T07:43:42.906Z,983.04
2017-11-30T07:44:53.021Z,982.98
2017-11-30T07:46:02.821Z,982.97
2017-11-30T07:47:13.896Z,982.95
2017-11-30T07:48:23.708Z,982.9
2017-11-30T07:49:33.521Z,982.95
2017-11-30T07:50:43.612Z,982.96
2017-11-30T07:51:53.434Z,982.95
2017-11-30T07:53:03.256Z,982.91
2017-11-30T07:54:13.340Z,982.91
2017-11-30T07:55:23.406Z,982.92
2017-11-30T07:56:33.267Z,982.91
2017-11-30T07:57:43.387Z,982.95
2017-11-30T07:58:53.202Z,982.95
2017-11-30T08:00:03.281Z,982.98
2017-11-30T08:01:13.361Z,982.96
2017-11-30T08:02:23.164Z,982.96
2017-11-30T08:03:33.241Z,982.9
2017-11-30T08:04:43.039Z,982.91
2017-11-30T08:05:52.892Z,982.92
2017-11-30T08:07:02.970Z,982.94
2017-11-30T08:08:12.782Z,982.94
2017-11-30T08:09:22.850Z,982.93
2017-11-30T08:10:32.730Z,982.94
2017-11-30T08:11:42.276Z,982.92
2017-11-30T08:12:52.369Z,982.85
2017-11-30T08:14:01.963Z,982.91
2017-11-30T08:15:11.767Z,982.92
2017-11-30T08:16:21.850Z,982.9
2017-11-30T08:17:31.653Z,982.89
2017-11-30T08:18:41.742Z,982.91
2017-11-30T08:19:51.870Z,982.98
2017-11-30T08:21:01.414Z,982.99
2017-11-30T08:22:11.209Z,983.02
2017-11-30T08:23:21.017Z,983.02
2017-11-30T08:24:30.845Z,983.03
2017-11-30T08:25:40.685Z,983.02
2017-11-30T08:26:50.757Z,983.06
2017-11-30T08:28:00.304Z,983.04
2017-11-30T08:29:10.114Z,983.1
2017-11-30T08:30:20.207Z,983.05
2017-11-30T08:31:30.280Z,983.07
2017-11-30T08:32:40.090Z,983.13
2017-11-30T08:33:50.757Z,983.09
2017-11-30T08:35:00.326Z,983.14
2017-11-30T08:36:10.125Z,983.04
2017-11-30T08:37:19.708Z,983.12
2017-11-30T08:38:29.780Z,983.12
2017-11-30T08:39:39.572Z,983.11
2017-11-30T08:40:49.389Z,983.14
2017-11-30T08:41:59.464Z,983.11
2017-11-30T08:43:09.592Z,983.07
2017-11-30T08:44:19.658Z,983.07
2017-11-30T08:45:29.190Z,983.08
2017-11-30T08:46:39.010Z,983.09
2017-11-30T08:47:48.808Z,983.07
2017-11-30T08:48:58.681Z,983.07
2017-11-30T08:50:08.489Z,983.1
2017-11-30T08:51:18.315Z,983.13
2017-11-30T08:52:28.426Z,983.07
2017-11-30T08:53:38.512Z,983.06
2017-11-30T08:54:48.647Z,983.11
2017-11-30T08:55:58.737Z,983.09
2017-11-30T08:57:08.855Z,983.06
2017-11-30T08:58:18.673Z,983.1
2017-11-30T08:59:28.505Z,983.08
2017-11-30T09:00:38.569Z,983.13
2017-11-30T09:01:48.650Z,983.09
2017-11-30T09:02:58.463Z,983.1
2017-11-30T09:04:08.543Z,983.11
2017-11-30T09:05:18.621Z,983.15
2017-11-30T09:06:28.429Z,983.16
2017-11-30T09:07:38.517Z,983.13
2017-11-30T09:08:48.085Z,983.2
2017-11-30T09:09:57.936Z,983.22
2017-11-30T09:11:07.484Z,983.22
2017-11-30T09:12:17.289Z,983.21
2017-11-30T09:13:27.353Z,983.26
2017-11-30T09:14:36.932Z,983.21
2017-11-30T09:15:47.015Z,983.28
2017-11-30T09:16:57.091Z,983.24
2017-11-30T09:18:06.649Z,983.22
2017-11-30T09:19:16.462Z,983.25
2017-11-30T09:20:26.283Z,983.25
2017-11-30T09:21:35.599Z,983.24
2017-11-30T09:22:44.884Z,983.3
2017-11-30T09:23:54.708Z,983.31
2017-11-30T09:25:04.800Z,983.24
2017-11-30T09:26:14.880Z,983.24
2017-11-30T09:27:25.004Z,983.29
2017-11-30T09:28:34.820Z,983.3
2017-11-30T09:29:44.946Z,983.25
2017-11-30T09:30:54.774Z,983.22
2017-11-30T09:32:04.589Z,983.28
2017-11-30T09:33:14.395Z,983.18
2017-11-30T09:34:24.463Z,983.14
2017-11-30T09:35:34.281Z,983.16
2017-11-30T09:36:44.094Z,983.13
2017-11-30T09:37:53.658Z,983.12
2017-11-30T09:39:03.890Z,983.08
2017-11-30T09:40:13.952Z,983.08
2017-11-30T09:41:23.479Z,983.09
2017-11-30T09:42:33.550Z,983.14
2017-11-30T09:43:42.837Z,983.09
2017-11-30T09:44:52.648Z,983.06
2017-11-30T09:46:02.478Z,983.07
2017-11-30T09:47:12.576Z,983.05
2017-11-30T09:48:22.118Z,983.01
2017-11-30T09:49:31.923Z,983.03
2017-11-30T09:50:42.036Z,983
2017-11-30T09:51:52.104Z,983.02
2017-11-30T09:53:01.907Z,983.03
2017-11-30T09:54:11.720Z,983.01
2017-11-30T09:55:21.545Z,982.99
2017-11-30T09:56:31.164Z,983.02
2017-11-30T09:57:40.737Z,983.02
2017-11-30T09:58:50.559Z,983.05
2017-11-30T10:00:00.389Z,983.06
2017-11-30T10:01:10.481Z,983.04
2017-11-30T10:02:20.023Z,983.01
2017-11-30T10:03:30.099Z,982.98
2017-11-30T10:04:40.179Z,982.94
2017-11-30T10:05:50.004Z,982.96
2017-11-30T10:07:00.121Z,983
2017-11-30T10:08:10.248Z,982.98
2017-11-30T10:09:20.067Z,982.99
2017-11-30T10:10:29.628Z,982.93
2017-11-30T10:11:39.179Z,982.91
2017-11-30T10:12:48.722Z,982.88
2017-11-30T10:13:58.542Z,982.86
2017-11-30T10:15:08.365Z,982.81
2017-11-30T10:16:18.466Z,982.76
2017-11-30T10:17:28.278Z,982.9
2017-11-30T10:18:38.094Z,982.84
2017-11-30T10:19:49.521Z,982.84
2017-11-30T10:20:59.858Z,982.87
2017-11-30T10:22:09.929Z,982.84
2017-11-30T10:23:19.740Z,982.88
2017-11-30T10:24:29.821Z,982.82
2017-11-30T10:25:39.680Z,982.78
2017-11-30T10:26:49.768Z,982.84
2017-11-30T10:27:59.862Z,982.83
2017-11-30T10:29:09.682Z,982.79
2017-11-30T10:30:19.512Z,982.74
2017-11-30T10:31:29.709Z,982.79
2017-11-30T10:32:39.863Z,982.73
2017-11-30T10:33:50.334Z,982.7
2017-11-30T10:35:01.412Z,982.73
2017-11-30T10:36:11.481Z,982.71
2017-11-30T10:37:21.767Z,982.69
2017-11-30T10:38:31.766Z,982.75
2017-11-30T10:39:41.589Z,982.75
2017-11-30T10:40:51.459Z,982.7
2017-11-30T10:42:01.026Z,982.77
2017-11-30T10:43:11.125Z,982.75
2017-11-30T10:44:21.238Z,982.77
2017-11-30T10:45:31.320Z,982.75
2017-11-30T10:46:41.384Z,982.76
2017-11-30T10:47:51.503Z,982.73
2017-11-30T10:49:01.559Z,982.72
2017-11-30T10:50:13.029Z,982.73
2017-11-30T10:51:22.836Z,982.7
2017-11-30T10:52:32.655Z,982.72
2017-11-30T10:53:43.828Z,982.77
2017-11-30T10:54:53.371Z,982.73
2017-11-30T10:56:03.185Z,982.67
2017-11-30T10:57:13.053Z,982.72
2017-11-30T10:58:22.614Z,982.76
2017-11-30T10:59:32.168Z,982.74
2017-11-30T11:00:41.999Z,982.8
2017-11-30T11:01:51.549Z,982.76
2017-11-30T11:03:01.722Z,982.76
2017-11-30T11:04:11.539Z,982.75
2017-11-30T11:05:21.374Z,982.79
2017-11-30T11:06:31.491Z,982.78
2017-11-30T11:07:41.584Z,982.79
2017-11-30T11:08:51.727Z,982.8
2017-11-30T11:10:02.749Z,982.79
2017-11-30T11:11:12.029Z,982.81
2017-11-30T11:12:22.145Z,982.79
2017-11-30T11:13:31.963Z,982.76
2017-11-30T11:14:42.103Z,982.82
2017-11-30T11:15:51.680Z,982.79
2017-11-30T11:17:01.781Z,982.83
2017-11-30T11:18:11.887Z,982.85
2017-11-30T11:19:21.701Z,982.83
2017-11-30T11:20:31.960Z,982.85
2017-11-30T11:21:42.037Z,982.87
2017-11-30T11:22:52.123Z,982.84
2017-11-30T11:24:01.949Z,982.82
2017-11-30T11:25:12.876Z,982.86
2017-11-30T11:26:23.128Z,982.82
2017-11-30T11:27:33.213Z,982.82
2017-11-30T11:28:43.028Z,982.82
2017-11-30T11:29:53.114Z,982.88
2017-11-30T11:31:02.949Z,982.87
2017-11-30T11:32:12.828Z,982.8
2017-11-30T11:33:22.643Z,982.9
2017-11-30T11:34:32.200Z,982.84
2017-11-30T11:35:42.290Z,982.86
2017-11-30T11:36:52.109Z,982.91
2017-11-30T11:38:01.987Z,982.9
2017-11-30T11:39:12.076Z,982.92
2017-11-30T11:40:22.157Z,982.94
2017-11-30T11:41:31.969Z,982.92
2017-11-30T11:42:41.801Z,983.07
2017-11-30T11:43:51.659Z,982.93
2017-11-30T11:45:01.477Z,982.97
2017-11-30T11:46:11.546Z,982.96
2017-11-30T11:47:21.117Z,982.96
2017-11-30T11:48:30.930Z,982.99
2017-11-30T11:49:41.022Z,982.97
2017-11-30T11:50:51.126Z,983.06
2017-11-30T11:52:01.232Z,983.04
2017-11-30T11:53:11.885Z,982.97
2017-11-30T11:54:21.695Z,983.05
2017-11-30T11:55:31.511Z,983.01
2017-11-30T11:56:41.615Z,982.99
2017-11-30T11:57:51.711Z,983
2017-11-30T11:59:01.266Z,982.99
2017-11-30T12:00:11.353Z,983.06
2017-11-30T12:01:20.964Z,983.05
2017-11-30T12:02:30.852Z,983.01
2017-11-30T12:03:40.941Z,983.06
2017-11-30T12:04:51.059Z,983.01
2017-11-30T12:06:01.147Z,982.95
2017-11-30T12:07:11.324Z,983.01
2017-11-30T12:08:21.185Z,983
2017-11-30T12:09:30.739Z,982.94
2017-11-30T12:10:40.546Z,982.99
2017-11-30T12:11:50.645Z,982.98
2017-11-30T12:13:00.594Z,982.95
2017-11-30T12:14:10.677Z,982.99
2017-11-30T12:15:20.493Z,983.02
2017-11-30T12:16:30.590Z,983.02
2017-11-30T12:17:40.144Z,983.04
2017-11-30T12:18:49.500Z,983.03
2017-11-30T12:19:59.329Z,983.01
2017-11-30T12:21:09.453Z,983.07
2017-11-30T12:22:19.613Z,983.09
2017-11-30T12:23:29.738Z,983.1
2017-11-30T12:24:39.871Z,983.1
2017-11-30T12:25:49.446Z,983.07
2017-11-30T12:26:59.531Z,983.12
2017-11-30T12:28:09.342Z,983.05
2017-11-30T12:29:19.441Z,983.17
2017-11-30T12:30:29.275Z,983.13
2017-11-30T12:31:39.373Z,983.15
2017-11-30T12:32:49.491Z,983.12
2017-11-30T12:33:59.322Z,983.12
2017-11-30T12:35:08.889Z,983.16
2017-11-30T12:36:18.771Z,983.17
2017-11-30T12:37:28.318Z,983.14
2017-11-30T12:38:38.406Z,983.13
2017-11-30T12:39:47.956Z,983.14
2017-11-30T12:40:58.059Z,983.11
2017-11-30T12:42:08.212Z,983.14
2017-11-30T12:43:17.763Z,983.2
2017-11-30T12:44:27.840Z,983.22
2017-11-30T12:45:37.667Z,983.2
2017-11-30T12:46:47.763Z,983.21
2017-11-30T12:47:57.388Z,983.23
2017-11-30T12:49:06.924Z,983.24
2017-11-30T12:50:17.114Z,983.2
2017-11-30T12:51:26.917Z,983.22
2017-11-30T12:52:36.726Z,983.23
2017-11-30T12:53:46.867Z,983.26
2017-11-30T12:54:56.435Z,983.26
2017-11-30T12:56:06.239Z,983.26
2017-11-30T12:57:16.077Z,983.29
2017-11-30T12:58:25.899Z,983.28
2017-11-30T12:59:35.759Z,983.27
2017-11-30T13:00:45.042Z,983.33
2017-11-30T13:01:54.597Z,983.32
2017-11-30T13:03:04.679Z,983.41
2017-11-30T13:04:14.749Z,983.39
2017-11-30T13:05:24.383Z,983.44
2017-11-30T13:06:34.164Z,983.43
2017-11-30T13:07:44.233Z,983.44
2017-11-30T13:08:54.290Z,983.46
2017-11-30T13:10:04.073Z,983.45
2017-11-30T13:11:14.211Z,983.47
2017-11-30T13:12:24.352Z,983.48
2017-11-30T13:13:34.170Z,983.49
2017-11-30T13:14:43.998Z,983.56
2017-11-30T13:15:54.065Z,983.52
2017-11-30T13:17:04.223Z,983.48
2017-11-30T13:18:14.303Z,983.54
2017-11-30T13:19:24.363Z,983.51
2017-11-30T13:20:34.164Z,983.47
2017-11-30T13:21:44.227Z,983.53
2017-11-30T13:22:54.062Z,983.55
2017-11-30T13:24:04.812Z,983.61
2017-11-30T13:25:14.869Z,983.62
2017-11-30T13:26:26.134Z,983.69
2017-11-30T13:27:35.927Z,983.6
2017-11-30T13:28:45.787Z,983.59
2017-11-30T13:29:55.598Z,983.62
2017-11-30T13:31:05.132Z,983.59
2017-11-30T13:32:15.225Z,983.67
2017-11-30T13:33:25.286Z,983.65
2017-11-30T13:34:35.171Z,983.68
2017-11-30T13:35:44.725Z,983.64
2017-11-30T13:36:54.311Z,983.68
2017-11-30T13:38:04.398Z,983.73
2017-11-30T13:39:14.222Z,983.75
2017-11-30T13:40:24.345Z,983.83
2017-11-30T13:41:34.521Z,983.76
2017-11-30T13:42:44.584Z,983.88
2017-11-30T13:43:54.391Z,983.9
2017-11-30T13:45:04.461Z,983.91
2017-11-30T13:46:14.592Z,983.94
2017-11-30T13:47:24.642Z,983.91
2017-11-30T13:48:34.437Z,983.97
2017-11-30T13:49:44.271Z,983.97
2017-11-30T13:50:54.323Z,984.02
2017-11-30T13:52:04.180Z,984.04
2017-11-30T13:53:14.262Z,984.08
2017-11-30T13:54:24.061Z,984.11
2017-11-30T13:55:34.120Z,984.14
2017-11-30T13:56:43.944Z,984.1
2017-11-30T13:57:54.066Z,984.19
2017-11-30T13:59:04.146Z,984.19
2017-11-30T14:00:14.206Z,984.25
2017-11-30T14:01:24.015Z,984.24
2017-11-30T14:02:34.087Z,984.34
2017-11-30T14:03:44.518Z,984.35
2017-11-30T14:04:54.624Z,984.36
2017-11-30T14:06:04.680Z,984.34
2017-11-30T14:07:14.739Z,984.38
2017-11-30T14:08:24.528Z,984.39
2017-11-30T14:09:35.453Z,984.36
2017-11-30T14:10:45.267Z,984.41
2017-11-30T14:11:55.061Z,984.45
2017-11-30T14:13:05.163Z,984.52
2017-11-30T14:14:15.203Z,984.52
2017-11-30T14:15:24.737Z,984.51
2017-11-30T14:16:34.018Z,984.6
2017-11-30T14:17:43.852Z,984.56
2017-11-30T14:18:53.902Z,984.6
2017-11-30T14:20:03.687Z,984.65
2017-11-30T14:21:13.480Z,984.64
2017-11-30T14:22:23.554Z,984.66
2017-11-30T14:23:33.604Z,984.67
2017-11-30T14:24:43.469Z,984.68
2017-11-30T14:25:53.536Z,984.72
2017-11-30T14:27:03.339Z,984.7
2017-11-30T14:28:13.139Z,984.74
2017-11-30T14:29:23.201Z,984.76
2017-11-30T14:30:33.026Z,984.75
2017-11-30T14:31:43.073Z,984.79
2017-11-30T14:32:52.880Z,984.78
2017-11-30T14:34:03.400Z,984.86
2017-11-30T14:35:13.225Z,984.86
2017-11-30T14:36:23.079Z,984.91
2017-11-30T14:37:32.932Z,984.93
2017-11-30T14:38:42.993Z,984.97
2017-11-30T14:39:53.068Z,985.02
2017-11-30T14:41:03.116Z,985.02
2017-11-30T14:42:12.967Z,984.93
2017-11-30T14:43:23.058Z,984.99
2017-11-30T14:44:33.104Z,985.03
2017-11-30T14:45:43.251Z,984.97
2017-11-30T14:46:53.032Z,984.98
2017-11-30T14:48:02.609Z,984.89
2017-11-30T14:49:12.664Z,984.97
2017-11-30T14:50:22.470Z,985.05
2017-11-30T14:51:32.014Z,984.96
2017-11-30T14:52:41.839Z,984.99
2017-11-30T14:53:51.696Z,984.99
2017-11-30T14:55:01.760Z,984.98
2017-11-30T14:56:11.560Z,985.07
2017-11-30T14:57:21.103Z,985.05
2017-11-30T14:58:30.624Z,985.1
2017-11-30T14:59:40.740Z,985.04
2017-11-30T15:00:50.306Z,985.05
2017-11-30T15:02:00.102Z,985.12
2017-11-30T15:03:10.168Z,985.11
2017-11-30T15:04:19.785Z,985.14
2017-11-30T15:05:29.911Z,985.15
2017-11-30T15:06:39.731Z,985.12